createdAt,value
2019-03-21T00:01:17.010Z,100378.16
2019-03-21T00:03:48.150Z,100370.09
2019-03-21T00:06:18.419Z,100368.75
2019-03-21T00:08:48.757Z,100371.57
2019-03-21T00:11:54.391Z,100374.37
2019-03-21T00:14:46.976Z,100376.80
2019-03-21T00:17:18.099Z,100371.95
2019-03-21T00:19:48.240Z,100369.00
2019-03-21T00:22:18.427Z,100369.00
2019-03-21T00:24:48.624Z,100368.23
2019-03-21T00:27:18.805Z,100362.91
2019-03-21T00:29:49.008Z,100367.02
2019-03-21T00:32:19.179Z,100366.22
2019-03-21T00:34:49.299Z,100366.16
2019-03-21T00:37:19.478Z,100366.86
2019-03-21T00:39:49.624Z,100361.80
2019-03-21T00:42:19.909Z,100355.05
2019-03-21T00:44:50.024Z,100363.95
2019-03-21T00:47:20.257Z,100364.00
2019-03-21T00:49:50.409Z,100364.64
2019-03-21T00:52:20.564Z,100367.59
2019-03-21T00:54:50.755Z,100362.36
2019-03-21T00:57:20.894Z,100365.07
2019-03-21T00:59:51.032Z,100363.02
2019-03-21T01:02:21.251Z,100362.09
2019-03-21T01:04:51.426Z,100360.84
2019-03-21T01:07:21.755Z,100373.84
2019-03-21T01:09:51.916Z,100362.40
2019-03-21T01:12:22.106Z,100365.23
2019-03-21T01:14:52.307Z,100364.67
2019-03-21T01:17:22.503Z,100370.59
2019-03-21T01:19:52.661Z,100371.78
2019-03-21T01:22:22.796Z,100377.78
2019-03-21T01:24:52.919Z,100373.08
2019-03-21T01:27:23.096Z,100375.01
2019-03-21T01:29:53.250Z,100375.42
2019-03-21T01:32:23.451Z,100379.86
2019-03-21T01:34:53.586Z,100379.54
2019-03-21T01:37:23.832Z,100380.81
2019-03-21T01:39:54.007Z,100378.52
2019-03-21T01:42:24.835Z,100387.31
2019-03-21T01:44:54.993Z,100392.86
2019-03-21T01:47:25.117Z,100391.95
2019-03-21T01:49:55.286Z,100397.73
2019-03-21T01:52:25.425Z,100406.37
2019-03-21T01:54:55.695Z,100404.81
2019-03-21T01:57:25.980Z,100408.05
2019-03-21T01:59:56.163Z,100411.91
2019-03-21T02:02:26.346Z,100410.06
2019-03-21T02:04:56.535Z,100412.48
2019-03-21T02:07:26.713Z,100422.96
2019-03-21T02:09:56.884Z,100419.17
2019-03-21T02:12:27.113Z,100423.39
2019-03-21T02:14:57.336Z,100429.29
2019-03-21T02:17:27.469Z,100426.09
2019-03-21T02:19:57.617Z,100420.72
2019-03-21T02:22:27.816Z,100423.31
2019-03-21T02:24:58.055Z,100415.98
2019-03-21T02:27:28.166Z,100415.45
2019-03-21T02:29:58.311Z,100419.38
2019-03-21T02:32:28.452Z,100417.63
2019-03-21T02:34:58.662Z,100422.72
2019-03-21T02:37:28.834Z,100417.51
2019-03-21T02:40:00.317Z,100422.25
2019-03-21T02:42:30.888Z,100423.93
2019-03-21T02:45:08.535Z,100426.24
2019-03-21T02:47:32.960Z,100423.37
2019-03-21T02:50:03.143Z,100427.11
2019-03-21T02:52:33.299Z,100428.66
2019-03-21T02:55:03.517Z,100424.41
2019-03-21T02:57:33.686Z,100423.34
2019-03-21T03:00:04.061Z,100422.80
2019-03-21T03:02:37.208Z,100428.44
2019-03-21T03:05:06.838Z,100424.92
2019-03-21T03:07:36.960Z,100429.16
2019-03-21T03:10:09.348Z,100428.19
2019-03-21T03:12:39.501Z,100427.15
2019-03-21T03:15:22.777Z,100426.58
2019-03-21T03:17:44.010Z,100433.64
2019-03-21T03:20:15.323Z,100432.67
2019-03-21T03:22:45.510Z,100433.39
2019-03-21T03:25:16.138Z,100433.81
2019-03-21T03:27:47.110Z,100434.94
2019-03-21T03:30:19.283Z,100446.14
2019-03-21T03:32:49.431Z,100444.77
2019-03-21T03:35:19.585Z,100445.69
2019-03-21T03:37:49.831Z,100446.64
2019-03-21T03:40:23.424Z,100447.88
2019-03-21T03:42:53.574Z,100444.98
2019-03-21T03:45:36.786Z,100440.16
2019-03-21T03:47:58.002Z,100442.30
2019-03-21T03:50:28.150Z,100446.62
2019-03-21T03:52:58.359Z,100445.62
2019-03-21T03:55:28.659Z,100442.10
2019-03-21T03:57:59.732Z,100443.27
2019-03-21T04:00:29.898Z,100446.33
2019-03-21T04:03:00.034Z,100452.48
2019-03-21T04:05:30.194Z,100453.41
2019-03-21T04:08:00.413Z,100453.87
2019-03-21T04:10:32.761Z,100457.48
2019-03-21T04:13:02.921Z,100450.58
2019-03-21T04:15:33.019Z,100449.38
2019-03-21T04:18:03.204Z,100447.46
2019-03-21T04:20:34.449Z,100451.50
2019-03-21T04:23:04.737Z,100458.32
2019-03-21T04:25:47.476Z,100457.66
2019-03-21T04:28:17.669Z,100464.14
2019-03-21T04:30:48.662Z,100457.44
2019-03-21T04:33:18.803Z,100465.02
2019-03-21T04:35:48.999Z,100464.61
2019-03-21T04:38:19.150Z,100470.67
2019-03-21T04:40:49.405Z,100468.34
2019-03-21T04:43:19.566Z,100476.06
2019-03-21T04:45:49.688Z,100479.45
2019-03-21T04:48:19.903Z,100478.58
2019-03-21T04:50:50.010Z,100482.06
2019-03-21T04:53:20.201Z,100477.53
2019-03-21T04:55:50.352Z,100479.88
2019-03-21T04:58:20.480Z,100481.13
2019-03-21T05:00:50.678Z,100484.12
2019-03-21T05:03:20.817Z,100483.06
2019-03-21T05:05:51.069Z,100485.15
2019-03-21T05:08:21.229Z,100484.53
2019-03-21T05:10:51.424Z,100488.92
2019-03-21T05:13:21.527Z,100487.20
2019-03-21T05:15:51.702Z,100489.81
2019-03-21T05:18:31.133Z,100487.59
2019-03-21T05:21:01.529Z,100496.20
2019-03-21T05:23:31.642Z,100491.21
2019-03-21T05:26:03.959Z,100486.27
2019-03-21T05:28:33.677Z,100488.11
2019-03-21T05:31:10.316Z,100497.84
2019-03-21T05:33:40.510Z,100501.08
2019-03-21T05:36:10.728Z,100498.63
2019-03-21T05:38:40.921Z,100505.20
2019-03-21T05:41:11.076Z,100504.27
2019-03-21T05:43:53.652Z,100512.91
2019-03-21T05:46:27.049Z,100510.19
2019-03-21T05:48:55.700Z,100510.56
2019-03-21T05:51:25.837Z,100513.69
2019-03-21T05:53:56.065Z,100522.11
2019-03-21T05:56:29.981Z,100531.84
2019-03-21T05:59:00.759Z,100524.86
2019-03-21T06:01:31.857Z,100534.81
2019-03-21T06:04:03.847Z,100533.89
2019-03-21T06:06:51.287Z,100534.81
2019-03-21T06:09:23.153Z,100539.13
2019-03-21T06:11:57.749Z,100540.05
2019-03-21T06:14:31.864Z,100545.13
2019-03-21T06:17:03.508Z,100546.05
2019-03-21T06:20:04.056Z,100542.58
2019-03-21T06:23:15.167Z,100551.52
2019-03-21T06:26:25.487Z,100552.78
2019-03-21T06:28:55.720Z,100553.41
2019-03-21T06:31:25.922Z,100556.97
2019-03-21T06:33:56.170Z,100558.81
2019-03-21T06:36:26.409Z,100560.98
2019-03-21T06:38:56.580Z,100560.91
2019-03-21T06:41:27.118Z,100566.27
2019-03-21T06:43:57.348Z,100562.40
2019-03-21T06:46:27.694Z,100563.50
2019-03-21T06:48:57.900Z,100561.23
2019-03-21T06:51:28.092Z,100557.95
2019-03-21T06:53:58.346Z,100550.66
2019-03-21T06:56:28.518Z,100549.94
2019-03-21T06:58:58.751Z,100546.56
2019-03-21T07:01:28.951Z,100542.23
2019-03-21T07:04:06.919Z,100542.94
2019-03-21T07:06:31.152Z,100541.59
2019-03-21T07:09:01.289Z,100544.45
2019-03-21T07:11:31.434Z,100552.34
2019-03-21T07:14:02.227Z,100552.58
2019-03-21T07:16:32.394Z,100551.56
2019-03-21T07:19:02.579Z,100558.89
2019-03-21T07:21:32.786Z,100562.14
2019-03-21T07:24:03.002Z,100556.40
2019-03-21T07:26:33.213Z,100563.89
2019-03-21T07:29:03.441Z,100568.23
2019-03-21T07:31:33.675Z,100565.83
2019-03-21T07:34:03.912Z,100579.32
2019-03-21T07:36:34.239Z,100578.22
2019-03-21T07:39:06.630Z,100581.56
2019-03-21T07:41:36.816Z,100579.36
2019-03-21T07:44:07.102Z,100578.71
2019-03-21T07:46:37.255Z,100578.71
2019-03-21T07:49:07.420Z,100578.76
2019-03-21T07:51:37.748Z,100588.02
2019-03-21T07:54:07.956Z,100585.63
2019-03-21T07:56:38.162Z,100590.19
2019-03-21T07:59:08.366Z,100586.15
2019-03-21T08:01:38.566Z,100578.28
2019-03-21T08:04:08.802Z,100584.86
2019-03-21T08:06:38.972Z,100586.83
2019-03-21T08:09:09.504Z,100584.88
2019-03-21T08:11:39.704Z,100581.61
2019-03-21T08:14:10.083Z,100576.37
2019-03-21T08:16:40.324Z,100581.28
2019-03-21T08:19:10.482Z,100582.13
2019-03-21T08:21:41.175Z,100578.70
2019-03-21T08:24:11.463Z,100584.21
2019-03-21T08:26:41.703Z,100573.63
2019-03-21T08:29:11.930Z,100575.13
2019-03-21T08:31:42.114Z,100578.44
2019-03-21T08:34:12.252Z,100576.28
2019-03-21T08:36:42.456Z,100570.22
2019-03-21T08:39:12.637Z,100564.35
2019-03-21T08:41:42.838Z,100566.70
2019-03-21T08:44:13.081Z,100574.51
2019-03-21T08:46:43.271Z,100569.55
2019-03-21T08:49:13.510Z,100572.63
2019-03-21T08:51:43.690Z,100574.27
2019-03-21T08:54:13.885Z,100572.19
2019-03-21T08:56:44.132Z,100576.81
2019-03-21T08:59:14.346Z,100575.50
2019-03-21T09:01:44.554Z,100565.39
2019-03-21T09:04:14.824Z,100560.08
2019-03-21T09:06:45.013Z,100562.66
2019-03-21T09:09:15.259Z,100565.37
2019-03-21T09:11:45.486Z,100564.11
2019-03-21T09:14:15.677Z,100566.77
2019-03-21T09:16:45.923Z,100563.42
2019-03-21T09:19:16.109Z,100565.08
2019-03-21T09:21:46.310Z,100565.34
2019-03-21T09:24:16.600Z,100566.68
2019-03-21T09:26:46.813Z,100561.77
2019-03-21T09:29:17.100Z,100570.91
2019-03-21T09:31:47.247Z,100566.06
2019-03-21T09:34:17.440Z,100573.25
2019-03-21T09:36:47.795Z,100560.05
2019-03-21T09:39:17.966Z,100561.84
2019-03-21T09:41:48.160Z,100564.64
2019-03-21T09:44:24.306Z,100565.72
2019-03-21T09:46:54.998Z,100564.70
2019-03-21T09:49:25.223Z,100560.33
2019-03-21T09:51:55.500Z,100558.52
2019-03-21T09:54:25.617Z,100559.70
2019-03-21T09:56:55.915Z,100567.14
2019-03-21T09:59:26.098Z,100557.20
2019-03-21T10:01:56.300Z,100560.97
2019-03-21T10:04:26.499Z,100556.98
2019-03-21T10:06:56.643Z,100558.64
2019-03-21T10:09:26.812Z,100542.52
2019-03-21T10:11:57.026Z,100540.33
2019-03-21T10:14:27.206Z,100538.90
2019-03-21T10:16:57.427Z,100534.73
2019-03-21T10:19:27.627Z,100532.20
2019-03-21T10:21:57.870Z,100525.97
2019-03-21T10:24:28.033Z,100516.21
2019-03-21T10:26:58.261Z,100518.73
2019-03-21T10:29:28.402Z,100515.50
2019-03-21T10:31:58.587Z,100511.77
2019-03-21T10:34:28.752Z,100510.03
2019-03-21T10:36:59.014Z,100501.83
2019-03-21T10:39:29.242Z,100496.62
2019-03-21T10:41:59.460Z,100500.27
2019-03-21T10:44:29.672Z,100491.91
2019-03-21T10:46:59.855Z,100488.36
2019-03-21T10:49:30.019Z,100484.80
2019-03-21T10:52:00.197Z,100483.22
2019-03-21T10:54:30.394Z,100478.72
2019-03-21T10:57:00.592Z,100478.11
2019-03-21T10:59:30.808Z,100470.25
2019-03-21T11:02:07.216Z,100476.97
2019-03-21T11:04:33.010Z,100467.14
2019-03-21T11:07:01.638Z,100466.53
2019-03-21T11:09:32.853Z,100460.75
2019-03-21T11:12:03.122Z,100458.52
2019-03-21T11:14:33.264Z,100455.61
2019-03-21T11:17:03.426Z,100458.60
2019-03-21T11:19:33.585Z,100446.50
2019-03-21T11:22:06.553Z,100445.62
2019-03-21T11:24:35.667Z,100440.41
2019-03-21T11:27:06.027Z,100428.69
2019-03-21T11:29:36.243Z,100426.77
2019-03-21T11:32:06.449Z,100419.66
2019-03-21T11:34:36.620Z,100423.81
2019-03-21T11:37:06.848Z,100413.22
2019-03-21T11:39:36.973Z,100409.74
2019-03-21T11:42:07.118Z,100405.95
2019-03-21T11:44:37.268Z,100405.88
2019-03-21T11:47:06.618Z,100392.31
2019-03-21T11:49:36.850Z,100385.87
2019-03-21T11:52:17.767Z,100378.63
2019-03-21T11:54:39.386Z,100374.58
2019-03-21T11:57:09.614Z,100367.30
2019-03-21T11:59:51.116Z,100366.16
2019-03-21T12:02:11.710Z,100373.23
2019-03-21T12:04:41.919Z,100365.89
2019-03-21T12:07:12.090Z,100364.30
2019-03-21T12:09:42.268Z,100367.86
2019-03-21T12:12:12.548Z,100356.72
2019-03-21T12:14:42.707Z,100358.23
2019-03-21T12:17:13.058Z,100362.16
2019-03-21T12:19:43.177Z,100353.02
2019-03-21T12:22:13.301Z,100358.95
2019-03-21T12:24:43.424Z,100348.20
2019-03-21T12:27:13.601Z,100349.63
2019-03-21T12:29:43.740Z,100343.34
2019-03-21T12:32:13.860Z,100342.55
2019-03-21T12:34:44.086Z,100339.92
2019-03-21T12:37:14.243Z,100341.87
2019-03-21T12:39:44.488Z,100334.08
2019-03-21T12:42:14.635Z,100337.50
2019-03-21T12:44:44.781Z,100336.84
2019-03-21T12:47:14.944Z,100331.91
2019-03-21T12:49:45.135Z,100324.40
2019-03-21T12:52:15.349Z,100326.33
2019-03-21T12:54:45.508Z,100325.57
2019-03-21T12:57:15.666Z,100319.34
2019-03-21T12:59:45.857Z,100326.55
2019-03-21T13:02:15.985Z,100316.45
2019-03-21T13:04:46.161Z,100314.55
2019-03-21T13:07:16.955Z,100319.61
2019-03-21T13:09:47.403Z,100313.27
2019-03-21T13:12:17.605Z,100315.85
2019-03-21T13:14:47.782Z,100320.34
2019-03-21T13:17:17.974Z,100314.41
2019-03-21T13:19:48.138Z,100310.80
2019-03-21T13:22:18.261Z,100313.42
2019-03-21T13:24:48.398Z,100307.42
2019-03-21T13:27:18.599Z,100305.66
2019-03-21T13:29:48.802Z,100307.08
2019-03-21T13:32:19.009Z,100311.55
2019-03-21T13:34:49.183Z,100308.34
2019-03-21T13:37:19.417Z,100307.21
2019-03-21T13:39:49.622Z,100303.27
2019-03-21T13:42:19.879Z,100302.21
2019-03-21T13:44:50.067Z,100302.53
2019-03-21T13:47:20.201Z,100295.20
2019-03-21T13:49:50.376Z,100296.58
2019-03-21T13:52:20.547Z,100298.03
2019-03-21T13:54:50.810Z,100294.75
2019-03-21T13:57:20.958Z,100292.04
2019-03-21T13:59:51.164Z,100296.08
2019-03-21T14:02:21.382Z,100291.72
2019-03-21T14:04:51.561Z,100287.45
2019-03-21T14:07:21.807Z,100291.53
2019-03-21T14:09:52.031Z,100283.41
2019-03-21T14:12:22.209Z,100289.02
2019-03-21T14:14:52.418Z,100288.63
2019-03-21T14:17:22.578Z,100284.49
2019-03-21T14:19:52.807Z,100285.02
2019-03-21T14:22:22.958Z,100284.13
2019-03-21T14:24:53.137Z,100291.11
2019-03-21T14:27:25.881Z,100288.84
2019-03-21T14:30:01.158Z,100289.00
2019-03-21T14:32:27.199Z,100279.59
2019-03-21T14:34:57.361Z,100280.31
2019-03-21T14:37:27.598Z,100275.70
2019-03-21T14:39:57.806Z,100271.28
2019-03-21T14:42:27.995Z,100266.22
2019-03-21T14:44:58.212Z,100267.20
2019-03-21T14:47:36.105Z,100260.13
2019-03-21T14:50:00.435Z,100257.31
2019-03-21T14:52:30.612Z,100260.38
2019-03-21T14:55:00.920Z,100257.18
2019-03-21T14:57:31.104Z,100259.96
2019-03-21T15:00:01.914Z,100262.22
2019-03-21T15:02:32.313Z,100250.94
2019-03-21T15:05:02.672Z,100255.94
2019-03-21T15:07:33.039Z,100259.66
2019-03-21T15:10:03.252Z,100254.59
2019-03-21T15:12:34.548Z,100253.13
2019-03-21T15:15:05.589Z,100242.89
2019-03-21T15:17:35.819Z,100253.52
2019-03-21T15:20:08.614Z,100248.42
2019-03-21T15:22:39.008Z,100260.06
2019-03-21T15:25:09.562Z,100247.85
2019-03-21T15:27:39.884Z,100251.47
2019-03-21T15:30:12.235Z,100255.75
2019-03-21T15:32:42.488Z,100254.95
2019-03-21T15:35:13.794Z,100248.55
2019-03-21T15:37:43.976Z,100250.39
2019-03-21T15:40:14.878Z,100246.30
2019-03-21T15:42:45.316Z,100250.12
2019-03-21T15:45:22.835Z,100253.13
2019-03-21T15:47:49.037Z,100244.31
2019-03-21T15:50:32.748Z,100244.27
2019-03-21T15:53:03.195Z,100247.47
2019-03-21T15:55:33.367Z,100251.05
2019-03-21T15:58:03.609Z,100253.33
2019-03-21T16:00:35.824Z,100240.75
2019-03-21T16:03:07.537Z,100254.31
2019-03-21T16:05:38.412Z,100252.05
2019-03-21T16:08:09.456Z,100261.91
2019-03-21T16:10:39.934Z,100263.79
2019-03-21T16:13:10.099Z,100263.68
2019-03-21T16:15:40.493Z,100265.87
2019-03-21T16:18:10.731Z,100271.95
2019-03-21T16:20:40.970Z,100272.56
2019-03-21T16:23:11.185Z,100270.79
2019-03-21T16:25:41.423Z,100181.09
2019-03-21T16:28:11.644Z,100274.46
2019-03-21T16:30:41.822Z,100276.80
2019-03-21T16:33:12.051Z,100281.17
2019-03-21T16:35:42.255Z,100275.70
2019-03-21T16:38:12.417Z,100279.31
2019-03-21T16:40:42.601Z,100279.23
2019-03-21T16:43:12.770Z,100282.25
2019-03-21T16:45:43.026Z,100292.89
2019-03-21T16:48:13.225Z,100295.16
2019-03-21T16:50:43.401Z,100298.53
2019-03-21T16:53:13.631Z,100294.73
2019-03-21T16:55:43.792Z,100294.75
2019-03-21T16:58:14.012Z,100299.24
2019-03-21T17:00:44.277Z,100298.64
2019-03-21T17:03:14.435Z,100303.39
2019-03-21T17:05:44.607Z,100305.73
2019-03-21T17:08:15.169Z,100305.28
2019-03-21T17:10:45.417Z,100306.16
2019-03-21T17:13:15.617Z,100317.27
2019-03-21T17:15:45.740Z,100313.62
2019-03-21T17:18:15.944Z,100312.41
2019-03-21T17:20:46.075Z,100317.23
2019-03-21T17:23:16.297Z,100316.02
2019-03-21T17:25:46.520Z,100321.27
2019-03-21T17:28:16.657Z,100324.77
2019-03-21T17:31:38.140Z,100321.25
2019-03-21T17:34:08.069Z,100321.72
2019-03-21T17:36:38.298Z,100275.19
2019-03-21T17:39:10.007Z,100336.58
2019-03-21T17:41:43.123Z,100339.79
2019-03-21T17:44:12.093Z,100350.30
2019-03-21T17:46:42.344Z,100350.34
2019-03-21T17:49:12.581Z,100353.59
2019-03-21T17:51:42.819Z,100352.78
2019-03-21T17:54:13.057Z,100359.03
2019-03-21T17:56:43.251Z,100361.56
2019-03-21T17:59:13.414Z,100364.96
2019-03-21T18:01:43.672Z,100369.13
2019-03-21T18:04:13.990Z,100375.38
2019-03-21T18:06:44.238Z,100384.36
2019-03-21T18:09:14.407Z,100378.29
2019-03-21T18:11:44.622Z,100377.28
2019-03-21T18:14:14.796Z,100375.78
2019-03-21T18:16:44.997Z,100371.00
2019-03-21T18:19:15.186Z,100374.70
2019-03-21T18:21:45.418Z,100372.39
2019-03-21T18:24:15.745Z,100375.25
2019-03-21T18:26:45.893Z,100380.47
2019-03-21T18:29:16.060Z,100368.80
2019-03-21T18:31:46.300Z,100372.53
2019-03-21T18:34:16.568Z,100376.42
2019-03-21T18:36:46.732Z,100378.98
2019-03-21T18:39:17.044Z,100374.73
2019-03-21T18:41:47.232Z,100376.59
2019-03-21T18:44:17.570Z,100378.79
2019-03-21T18:46:47.771Z,100378.80
2019-03-21T18:49:18.030Z,100378.09
2019-03-21T18:51:48.306Z,100373.17
2019-03-21T18:54:18.478Z,100380.61
2019-03-21T18:56:48.662Z,100379.25
2019-03-21T18:59:18.931Z,100381.96
2019-03-21T19:01:57.867Z,100367.88
2019-03-21T19:04:21.065Z,100372.44
2019-03-21T19:06:51.303Z,100367.36
2019-03-21T19:09:21.533Z,100370.94
2019-03-21T19:11:51.735Z,100362.31
2019-03-21T19:14:21.931Z,100369.23
2019-03-21T19:16:52.089Z,100370.10
2019-03-21T19:19:22.318Z,100366.05
2019-03-21T19:21:52.515Z,100370.47
2019-03-21T19:24:22.780Z,100368.44
2019-03-21T19:26:53.025Z,100370.30
2019-03-21T19:29:23.195Z,100372.02
2019-03-21T19:31:56.307Z,100369.34
2019-03-21T19:34:26.689Z,100363.91
2019-03-21T19:36:57.505Z,100372.67
2019-03-21T19:39:27.696Z,100377.09
2019-03-21T19:41:57.918Z,100373.69
2019-03-21T19:44:28.113Z,100373.36
2019-03-21T19:46:58.335Z,100368.86
2019-03-21T19:49:28.541Z,100375.02
2019-03-21T19:51:59.072Z,100374.38
2019-03-21T19:54:29.381Z,100371.48
2019-03-21T19:56:59.531Z,100362.75
2019-03-21T19:59:29.791Z,100373.41
2019-03-21T20:02:00.079Z,100370.23
2019-03-21T20:04:30.241Z,100371.61
2019-03-21T20:07:00.528Z,100370.59
2019-03-21T20:09:30.719Z,100363.40
2019-03-21T20:12:00.995Z,100373.59
2019-03-21T20:14:31.179Z,100366.48
2019-03-21T20:17:01.364Z,100368.70
2019-03-21T20:19:31.501Z,100366.51
2019-03-21T20:22:01.725Z,100363.85
2019-03-21T20:24:31.959Z,100368.52
2019-03-21T20:27:02.161Z,100361.63
2019-03-21T20:29:32.341Z,100364.05
2019-03-21T20:32:02.556Z,100368.05
2019-03-21T20:34:32.868Z,100368.11
2019-03-21T20:37:03.036Z,100365.56
2019-03-21T20:39:33.267Z,100362.56
2019-03-21T20:42:03.423Z,100362.23
2019-03-21T20:44:33.585Z,100359.72
2019-03-21T20:47:03.811Z,100358.72
2019-03-21T20:49:34.003Z,100355.42
2019-03-21T20:52:04.204Z,100361.58
2019-03-21T20:54:34.461Z,100361.06
2019-03-21T20:57:04.765Z,100355.22
2019-03-21T20:59:35.063Z,100359.59
2019-03-21T21:02:05.345Z,100361.30
2019-03-21T21:04:35.522Z,100363.50
2019-03-21T21:07:05.781Z,100368.70
2019-03-21T21:09:36.019Z,100361.05
2019-03-21T21:12:06.348Z,100363.58
2019-03-21T21:14:36.582Z,100365.25
2019-03-21T21:17:06.806Z,100365.27
2019-03-21T21:19:37.017Z,100371.84
2019-03-21T21:22:07.200Z,100369.82
2019-03-21T21:24:37.419Z,100373.75
2019-03-21T21:27:07.605Z,100369.53
2019-03-21T21:29:37.879Z,100380.66
2019-03-21T21:32:08.060Z,100379.48
2019-03-21T21:34:38.288Z,100380.09
2019-03-21T21:37:08.524Z,100374.78
2019-03-21T21:39:38.728Z,100375.11
2019-03-21T21:42:08.901Z,100383.63
2019-03-21T21:44:39.051Z,100391.65
2019-03-21T21:47:09.242Z,100392.11
2019-03-21T21:49:39.544Z,100391.21
2019-03-21T21:52:09.704Z,100389.28
2019-03-21T21:54:39.947Z,100389.98
2019-03-21T21:57:10.165Z,100397.78
2019-03-21T21:59:40.804Z,100387.52
2019-03-21T22:02:11.058Z,100394.32
2019-03-21T22:04:41.275Z,100396.77
2019-03-21T22:07:11.513Z,100393.05
2019-03-21T22:09:41.763Z,100390.20
2019-03-21T22:12:11.949Z,100397.47
2019-03-21T22:14:42.179Z,100399.92
2019-03-21T22:17:12.414Z,100396.08
2019-03-21T22:19:42.593Z,100403.51
2019-03-21T22:22:12.818Z,100397.91
2019-03-21T22:24:42.986Z,100399.98
2019-03-21T22:27:13.218Z,100398.24
2019-03-21T22:29:43.413Z,100400.30
2019-03-21T22:32:13.567Z,100400.92
2019-03-21T22:34:43.767Z,100404.95
2019-03-21T22:37:13.957Z,100408.48
2019-03-21T22:39:44.183Z,100403.02
2019-03-21T22:42:14.388Z,100405.07
2019-03-21T22:44:44.575Z,100404.11
2019-03-21T22:47:14.812Z,100398.58
2019-03-21T22:49:45.036Z,100401.38
2019-03-21T22:52:15.251Z,100398.98
2019-03-21T22:54:45.438Z,100394.64
2019-03-21T22:57:15.659Z,100399.16
2019-03-21T22:59:45.977Z,100403.57
2019-03-21T23:02:16.116Z,100402.50
2019-03-21T23:04:46.334Z,100402.61
2019-03-21T23:07:16.492Z,100405.83
2019-03-21T23:09:46.703Z,100408.12
2019-03-21T23:12:16.902Z,100410.45
2019-03-21T23:14:47.965Z,100407.33
2019-03-21T23:17:18.146Z,100401.27
2019-03-21T23:19:48.360Z,100398.06
2019-03-21T23:22:18.575Z,100392.97
2019-03-21T23:24:48.782Z,100397.44
2019-03-21T23:27:18.979Z,100398.36
2019-03-21T23:29:49.971Z,100396.07
2019-03-21T23:32:20.322Z,100397.85
2019-03-21T23:34:50.541Z,100400.16
2019-03-21T23:37:20.696Z,100398.97
2019-03-21T23:39:50.905Z,100282.89
2019-03-21T23:42:21.131Z,100397.18
2019-03-21T23:44:51.370Z,100390.82
2019-03-21T23:47:21.746Z,100396.84
2019-03-21T23:49:51.903Z,100394.72
2019-03-21T23:52:22.108Z,100391.56
2019-03-21T23:54:52.392Z,100394.06
2019-03-21T23:57:22.575Z,100391.79
2019-03-21T23:59:52.791Z,100399.31
